createdAt,value
2022-11-27T00:02:17.698Z,62.56
2022-11-27T00:04:44.002Z,62.35
2022-11-27T00:07:10.418Z,62.48
2022-11-27T00:09:36.784Z,62.60
2022-11-27T00:12:03.180Z,62.92
2022-11-27T00:14:29.423Z,62.89
2022-11-27T00:16:55.678Z,62.88
2022-11-27T00:19:21.937Z,63.38
2022-11-27T00:21:48.212Z,63.37
2022-11-27T00:24:14.483Z,63.08
2022-11-27T00:26:40.758Z,63.10
2022-11-27T00:29:07.021Z,62.92
2022-11-27T00:31:33.352Z,63.01
2022-11-27T00:33:59.744Z,63.21
2022-11-27T00:36:25.999Z,63.11
2022-11-27T00:38:52.252Z,63.06
2022-11-27T00:41:18.575Z,63.45
2022-11-27T00:43:45.418Z,63.65
2022-11-27T00:46:12.015Z,63.75
2022-11-27T00:48:38.300Z,63.45
2022-11-27T00:51:04.588Z,63.94
2022-11-27T00:53:30.828Z,63.57
2022-11-27T00:55:57.082Z,63.52
2022-11-27T00:58:23.333Z,63.93
2022-11-27T01:00:49.586Z,63.78
2022-11-27T01:03:15.867Z,63.64
2022-11-27T01:05:42.219Z,63.35
2022-11-27T01:08:08.476Z,63.42
2022-11-27T01:10:34.737Z,63.22
2022-11-27T01:13:00.995Z,63.20
2022-11-27T01:15:27.249Z,63.49
2022-11-27T01:17:53.522Z,63.26
2022-11-27T01:20:19.780Z,63.58
2022-11-27T01:22:46.028Z,63.74
2022-11-27T01:25:12.266Z,63.88
2022-11-27T01:27:38.527Z,63.84
2022-11-27T01:30:04.815Z,63.76
2022-11-27T01:32:31.053Z,63.87
2022-11-27T01:34:57.293Z,63.54
2022-11-27T01:37:23.540Z,63.77
2022-11-27T01:39:49.794Z,63.66
2022-11-27T01:42:16.064Z,63.68
2022-11-27T01:44:42.400Z,63.93
2022-11-27T01:47:08.877Z,63.35
2022-11-27T01:49:35.140Z,63.50
2022-11-27T01:52:01.402Z,63.15
2022-11-27T01:54:27.669Z,63.10
2022-11-27T01:56:54.037Z,62.94
2022-11-27T01:59:20.304Z,62.95
2022-11-27T02:01:46.595Z,62.84
2022-11-27T02:04:12.885Z,62.60
2022-11-27T02:06:39.122Z,62.95
2022-11-27T02:09:05.397Z,63.02
2022-11-27T02:11:31.726Z,63.22
2022-11-27T02:13:57.960Z,63.12
2022-11-27T02:16:24.221Z,63.17
2022-11-27T02:18:50.528Z,63.65
2022-11-27T02:21:16.781Z,64.29
2022-11-27T02:23:43.049Z,64.75
2022-11-27T02:26:09.340Z,65.04
2022-11-27T02:28:35.598Z,65.39
2022-11-27T02:31:01.935Z,65.81
2022-11-27T02:33:28.253Z,65.90
2022-11-27T02:35:54.517Z,66.40
2022-11-27T02:38:20.792Z,66.70
2022-11-27T02:40:47.030Z,66.44
2022-11-27T02:43:13.380Z,66.64
2022-11-27T02:45:39.684Z,66.48
2022-11-27T02:48:05.934Z,66.20
2022-11-27T02:50:32.185Z,66.23
2022-11-27T02:52:58.465Z,66.21
2022-11-27T02:55:24.712Z,66.17
2022-11-27T02:57:50.979Z,66.31
2022-11-27T03:00:17.260Z,66.16
2022-11-27T03:02:43.607Z,66.15
2022-11-27T03:05:09.993Z,65.84
2022-11-27T03:07:36.405Z,65.90
2022-11-27T03:10:02.700Z,65.44
2022-11-27T03:12:28.965Z,65.27
2022-11-27T03:14:55.225Z,65.46
2022-11-27T03:17:21.505Z,65.64
2022-11-27T03:19:47.772Z,65.86
2022-11-27T03:22:14.046Z,65.87
2022-11-27T03:24:40.589Z,65.59
2022-11-27T03:27:07.131Z,65.54
2022-11-27T03:29:33.473Z,65.55
2022-11-27T03:31:59.762Z,65.21
2022-11-27T03:34:26.001Z,64.51
2022-11-27T03:36:52.272Z,64.29
2022-11-27T03:39:18.536Z,63.97
2022-11-27T03:41:44.900Z,63.91
2022-11-27T03:44:11.137Z,63.64
2022-11-27T03:46:37.460Z,63.45
2022-11-27T03:49:03.836Z,63.35
2022-11-27T03:51:30.112Z,63.37
2022-11-27T03:53:56.452Z,63.63
2022-11-27T03:56:22.720Z,63.31
2022-11-27T03:58:48.981Z,63.96
2022-11-27T04:01:15.267Z,63.61
2022-11-27T04:03:41.639Z,63.85
2022-11-27T04:06:07.979Z,63.83
2022-11-27T04:08:34.244Z,63.77
2022-11-27T04:11:00.492Z,63.79
2022-11-27T04:13:26.742Z,63.78
2022-11-27T04:15:53.036Z,63.45
2022-11-27T04:18:19.337Z,63.52
2022-11-27T04:20:45.603Z,63.71
2022-11-27T04:23:11.881Z,63.12
2022-11-27T04:25:38.141Z,63.35
2022-11-27T04:28:04.407Z,63.27
2022-11-27T04:30:30.672Z,63.47
2022-11-27T04:32:56.929Z,63.29
2022-11-27T04:35:23.197Z,63.48
2022-11-27T04:37:49.445Z,63.49
2022-11-27T04:40:15.713Z,63.19
2022-11-27T04:42:41.971Z,63.64
2022-11-27T04:45:08.229Z,63.36
2022-11-27T04:47:34.506Z,63.38
2022-11-27T04:50:00.784Z,63.14
2022-11-27T04:52:27.064Z,63.15
2022-11-27T04:54:59.631Z,63.52
2022-11-27T04:57:26.429Z,63.26
2022-11-27T04:59:52.668Z,63.57
2022-11-27T05:02:18.922Z,64.03
2022-11-27T05:04:45.200Z,63.97
2022-11-27T05:07:11.495Z,63.89
2022-11-27T05:09:37.775Z,63.98
2022-11-27T05:12:04.025Z,64.30
2022-11-27T05:14:30.293Z,64.63
2022-11-27T05:16:56.546Z,64.19
2022-11-27T05:19:22.820Z,64.28
2022-11-27T05:21:49.075Z,64.40
2022-11-27T05:24:15.336Z,64.11
2022-11-27T05:26:41.579Z,63.95
2022-11-27T05:29:07.852Z,64.27
2022-11-27T05:31:34.195Z,63.90
2022-11-27T05:34:00.521Z,63.85
2022-11-27T05:36:26.771Z,64.02
2022-11-27T05:38:53.043Z,63.98
2022-11-27T05:41:19.319Z,64.30
2022-11-27T05:43:45.581Z,64.24
2022-11-27T05:46:11.896Z,64.04
2022-11-27T05:48:38.158Z,64.26
2022-11-27T05:51:04.437Z,64.23
2022-11-27T05:53:30.709Z,64.12
2022-11-27T05:55:56.968Z,64.30
2022-11-27T05:58:23.221Z,63.92
2022-11-27T06:00:49.484Z,63.90
2022-11-27T06:03:15.749Z,63.83
2022-11-27T06:05:42.046Z,64.03
2022-11-27T06:08:08.288Z,64.08
2022-11-27T06:10:34.557Z,63.76
2022-11-27T06:13:00.803Z,64.05
2022-11-27T06:15:27.077Z,64.23
2022-11-27T06:17:53.327Z,64.36
2022-11-27T06:20:19.585Z,64.90
2022-11-27T06:22:45.827Z,64.67
2022-11-27T06:25:12.090Z,64.85
2022-11-27T06:27:38.407Z,64.66
2022-11-27T06:30:04.700Z,64.43
2022-11-27T06:32:30.989Z,64.67
2022-11-27T06:34:57.241Z,64.57
2022-11-27T06:37:23.535Z,64.57
2022-11-27T06:39:49.774Z,64.77
2022-11-27T06:42:16.041Z,64.87
2022-11-27T06:44:42.546Z,65.15
2022-11-27T06:47:09.003Z,64.77
2022-11-27T06:49:35.268Z,65.02
2022-11-27T06:52:01.519Z,64.87
2022-11-27T06:54:27.767Z,65.09
2022-11-27T06:56:54.025Z,65.23
2022-11-27T06:59:20.296Z,65.39
2022-11-27T07:01:46.606Z,65.38
2022-11-27T07:04:12.884Z,65.45
2022-11-27T07:06:39.164Z,65.32
2022-11-27T07:09:05.478Z,65.26
2022-11-27T07:11:31.736Z,65.73
2022-11-27T07:13:57.996Z,65.47
2022-11-27T07:16:24.313Z,65.39
2022-11-27T07:18:50.644Z,65.55
2022-11-27T07:21:16.921Z,65.88
2022-11-27T07:23:43.207Z,65.64
2022-11-27T07:26:09.473Z,65.85
2022-11-27T07:28:35.742Z,65.99
2022-11-27T07:31:02.005Z,65.79
2022-11-27T07:33:28.250Z,65.66
2022-11-27T07:35:54.509Z,65.51
2022-11-27T07:38:20.783Z,65.52
2022-11-27T07:40:47.040Z,65.58
2022-11-27T07:43:13.281Z,65.72
2022-11-27T07:45:39.624Z,65.53
2022-11-27T07:48:05.923Z,65.41
2022-11-27T07:50:32.169Z,65.77
2022-11-27T07:52:58.415Z,65.94
2022-11-27T07:55:24.680Z,65.86
2022-11-27T07:57:50.966Z,65.40
2022-11-27T08:00:17.229Z,65.45
2022-11-27T08:02:43.509Z,65.80
2022-11-27T08:05:12.624Z,65.31
2022-11-27T08:07:39.595Z,65.45
2022-11-27T08:10:05.901Z,65.60
2022-11-27T08:12:32.157Z,65.27
2022-11-27T08:14:58.426Z,65.22
2022-11-27T08:17:24.691Z,64.76
2022-11-27T08:19:51.001Z,64.86
2022-11-27T08:22:17.272Z,64.73
2022-11-27T08:24:43.563Z,64.38
2022-11-27T08:27:09.853Z,63.97
2022-11-27T08:29:36.172Z,64.19
2022-11-27T08:32:02.489Z,63.65
2022-11-27T08:34:28.789Z,63.63
2022-11-27T08:36:55.037Z,63.41
2022-11-27T08:39:21.450Z,63.44
2022-11-27T08:41:47.693Z,63.79
2022-11-27T08:44:13.960Z,63.88
2022-11-27T08:46:40.236Z,63.53
2022-11-27T08:49:06.488Z,63.69
2022-11-27T08:51:32.774Z,64.02
2022-11-27T08:53:59.059Z,63.97
2022-11-27T08:56:26.390Z,63.73
2022-11-27T08:58:52.642Z,63.57
2022-11-27T09:01:18.954Z,63.22
2022-11-27T09:03:45.345Z,62.84
2022-11-27T09:06:11.667Z,62.75
2022-11-27T09:08:37.930Z,63.10
2022-11-27T09:11:04.203Z,62.90
2022-11-27T09:13:30.481Z,62.76
2022-11-27T09:15:56.782Z,62.46
2022-11-27T09:18:23.027Z,61.38
2022-11-27T09:20:49.282Z,61.60
2022-11-27T09:23:15.521Z,61.47
2022-11-27T09:25:41.802Z,61.06
2022-11-27T09:28:08.064Z,61.73
2022-11-27T09:30:34.316Z,61.11
2022-11-27T09:33:00.584Z,60.66
2022-11-27T09:35:26.864Z,59.66
2022-11-27T09:37:53.173Z,58.93
2022-11-27T09:40:19.445Z,59.25
2022-11-27T09:42:45.701Z,57.98
2022-11-27T09:45:11.962Z,57.81
2022-11-27T09:47:41.421Z,57.00
2022-11-27T09:50:08.102Z,56.79
2022-11-27T09:52:34.354Z,56.58
2022-11-27T09:55:00.623Z,56.74
2022-11-27T09:57:26.891Z,57.09
2022-11-27T09:59:53.141Z,57.17
2022-11-27T10:02:19.478Z,56.67
2022-11-27T10:05:06.232Z,56.98
2022-11-27T10:07:32.031Z,56.46
2022-11-27T10:09:58.336Z,55.93
2022-11-27T10:12:24.577Z,56.60
2022-11-27T10:14:50.875Z,54.70
2022-11-27T10:17:17.146Z,55.01
2022-11-27T10:19:43.395Z,55.74
2022-11-27T10:22:09.656Z,55.38
2022-11-27T10:24:35.907Z,55.03
2022-11-27T10:27:02.172Z,54.85
2022-11-27T10:29:28.442Z,55.43
2022-11-27T10:31:54.856Z,56.03
2022-11-27T10:34:21.162Z,56.13
2022-11-27T10:36:47.409Z,55.73
2022-11-27T10:39:13.641Z,56.12
2022-11-27T10:41:49.382Z,55.72
2022-11-27T10:44:16.108Z,55.18
2022-11-27T10:46:42.353Z,55.34
2022-11-27T10:49:08.620Z,56.21
2022-11-27T10:51:34.862Z,57.20
2022-11-27T10:54:01.117Z,57.34
2022-11-27T10:56:27.349Z,57.22
2022-11-27T10:58:53.624Z,57.91
2022-11-27T11:01:19.937Z,58.50
2022-11-27T11:03:46.277Z,58.41
2022-11-27T11:06:20.844Z,58.55
2022-11-27T11:08:48.369Z,59.00
2022-11-27T11:11:14.615Z,59.51
2022-11-27T11:13:40.866Z,59.00
2022-11-27T11:16:09.798Z,58.73
2022-11-27T11:18:38.444Z,59.00
2022-11-27T11:21:04.686Z,58.11
2022-11-27T11:23:30.959Z,57.41
2022-11-27T11:25:57.214Z,58.30
2022-11-27T11:28:23.469Z,58.46
2022-11-27T11:30:49.713Z,58.71
2022-11-27T11:33:15.998Z,58.79
2022-11-27T11:35:42.257Z,58.66
2022-11-27T11:38:08.493Z,58.24
2022-11-27T11:40:34.838Z,57.57
2022-11-27T11:43:01.126Z,57.29
2022-11-27T11:45:31.205Z,57.93
2022-11-27T11:47:58.821Z,57.61
2022-11-27T11:50:25.085Z,57.99
2022-11-27T11:52:51.417Z,57.80
2022-11-27T11:55:17.657Z,58.37
2022-11-27T11:57:43.931Z,57.62
2022-11-27T12:00:10.187Z,57.90
2022-11-27T12:02:36.473Z,57.84
2022-11-27T12:05:02.778Z,58.56
2022-11-27T12:07:29.092Z,57.84
2022-11-27T12:09:55.382Z,57.65
2022-11-27T12:12:21.656Z,56.84
2022-11-27T12:14:47.906Z,57.55
2022-11-27T12:17:14.173Z,57.38
2022-11-27T12:19:40.445Z,57.65
2022-11-27T12:22:06.711Z,57.89
2022-11-27T12:24:32.968Z,57.22
2022-11-27T12:26:59.233Z,56.86
2022-11-27T12:29:25.483Z,57.68
2022-11-27T12:31:51.776Z,58.69
2022-11-27T12:34:18.075Z,58.40
2022-11-27T12:36:44.341Z,58.75
2022-11-27T12:39:10.596Z,58.96
2022-11-27T12:41:36.917Z,58.89
2022-11-27T12:44:03.153Z,58.75
2022-11-27T12:46:29.429Z,57.52
2022-11-27T12:48:55.841Z,57.79
2022-11-27T12:51:22.092Z,57.56
2022-11-27T12:53:48.356Z,57.42
2022-11-27T12:56:14.607Z,57.45
2022-11-27T12:58:40.886Z,58.22
2022-11-27T13:01:07.168Z,57.80
2022-11-27T13:03:33.477Z,57.23
2022-11-27T13:05:59.733Z,57.26
2022-11-27T13:08:25.989Z,57.65
2022-11-27T13:10:52.257Z,57.70
2022-11-27T13:13:18.526Z,58.14
2022-11-27T13:15:44.789Z,58.24
2022-11-27T13:18:11.062Z,57.50
2022-11-27T13:20:37.305Z,57.70
2022-11-27T13:23:03.584Z,57.71
2022-11-27T13:25:29.830Z,56.64
2022-11-27T13:27:56.100Z,57.16
2022-11-27T13:30:22.363Z,56.56
2022-11-27T13:32:48.715Z,57.01
2022-11-27T13:35:14.988Z,57.06
2022-11-27T13:37:41.231Z,56.96
2022-11-27T13:40:07.477Z,57.32
2022-11-27T13:42:33.781Z,57.56
2022-11-27T13:45:00.081Z,57.33
2022-11-27T13:47:26.364Z,55.87
2022-11-27T13:49:52.648Z,56.31
2022-11-27T13:52:18.887Z,56.82
2022-11-27T13:54:45.366Z,56.21
2022-11-27T13:57:11.781Z,56.44
2022-11-27T13:59:39.453Z,56.35
2022-11-27T14:02:06.070Z,57.18
2022-11-27T14:04:32.411Z,57.76
2022-11-27T14:06:58.661Z,57.30
2022-11-27T14:09:24.932Z,57.59
2022-11-27T14:11:51.200Z,57.37
2022-11-27T14:14:17.459Z,57.73
2022-11-27T14:16:43.697Z,57.90
2022-11-27T14:19:09.953Z,57.94
2022-11-27T14:21:36.213Z,57.32
2022-11-27T14:24:02.470Z,57.60
2022-11-27T14:26:28.728Z,58.21
2022-11-27T14:28:55.021Z,57.89
2022-11-27T14:31:21.373Z,57.00
2022-11-27T14:34:13.666Z,56.62
2022-11-27T14:36:33.952Z,57.05
2022-11-27T14:39:00.225Z,56.73
2022-11-27T14:41:26.487Z,57.07
2022-11-27T14:43:52.783Z,57.31
2022-11-27T14:46:19.141Z,56.60
2022-11-27T14:48:45.468Z,56.90
2022-11-27T14:51:11.724Z,56.80
2022-11-27T14:53:38.112Z,56.44
2022-11-27T14:56:04.365Z,56.33
2022-11-27T14:58:30.667Z,56.97
2022-11-27T15:00:56.914Z,56.75
2022-11-27T15:03:23.210Z,56.68
2022-11-27T15:05:49.521Z,56.97
2022-11-27T15:08:15.848Z,57.10
2022-11-27T15:10:42.225Z,56.41
2022-11-27T15:13:08.469Z,56.97
2022-11-27T15:15:34.777Z,56.25
2022-11-27T15:18:01.117Z,56.96
2022-11-27T15:20:27.390Z,57.08
2022-11-27T15:22:53.678Z,57.11
2022-11-27T15:25:19.943Z,56.75
2022-11-27T15:27:46.200Z,56.85
2022-11-27T15:30:12.514Z,56.36
2022-11-27T15:32:38.848Z,56.67
2022-11-27T15:35:05.121Z,57.31
2022-11-27T15:37:31.384Z,56.75
2022-11-27T15:39:57.680Z,57.14
2022-11-27T15:42:23.972Z,56.96
2022-11-27T15:44:50.249Z,57.06
2022-11-27T15:47:16.521Z,56.89
2022-11-27T15:49:42.850Z,56.74
2022-11-27T15:52:09.127Z,56.50
2022-11-27T15:54:35.386Z,56.35
2022-11-27T15:57:01.651Z,56.40
2022-11-27T15:59:28.167Z,56.20
2022-11-27T16:01:54.619Z,56.54
2022-11-27T16:04:20.957Z,55.79
2022-11-27T16:06:47.227Z,56.40
2022-11-27T16:09:13.520Z,55.97
2022-11-27T16:11:39.819Z,55.66
2022-11-27T16:14:06.082Z,56.25
2022-11-27T16:16:32.413Z,55.25
2022-11-27T16:18:58.732Z,55.74
2022-11-27T16:21:29.460Z,55.94
2022-11-27T16:23:56.278Z,56.60
2022-11-27T16:26:22.552Z,56.59
2022-11-27T16:28:48.803Z,57.06
2022-11-27T16:31:15.133Z,56.96
2022-11-27T16:33:41.436Z,56.88
2022-11-27T16:36:07.682Z,57.58
2022-11-27T16:38:33.935Z,56.90
2022-11-27T16:41:00.201Z,57.61
2022-11-27T16:43:26.453Z,57.49
2022-11-27T16:45:52.798Z,56.99
2022-11-27T16:48:19.102Z,57.70
2022-11-27T16:50:45.364Z,58.10
2022-11-27T16:53:11.612Z,57.91
2022-11-27T16:55:37.883Z,57.99
2022-11-27T16:58:04.139Z,57.51
2022-11-27T17:00:30.400Z,57.66
2022-11-27T17:02:56.692Z,57.89
2022-11-27T17:05:22.975Z,57.30
2022-11-27T17:07:49.292Z,58.42
2022-11-27T17:10:15.564Z,58.47
2022-11-27T17:12:41.864Z,58.29
2022-11-27T17:15:08.139Z,58.11
2022-11-27T17:17:39.778Z,58.32
2022-11-27T17:20:06.469Z,57.68
2022-11-27T17:22:32.751Z,58.05
2022-11-27T17:24:59.002Z,58.47
2022-11-27T17:27:25.249Z,58.51
2022-11-27T17:29:51.521Z,58.79
2022-11-27T17:32:17.799Z,58.67
2022-11-27T17:34:44.071Z,59.14
2022-11-27T17:37:10.337Z,58.72
2022-11-27T17:39:36.663Z,58.97
2022-11-27T17:42:02.943Z,58.96
2022-11-27T17:44:29.198Z,58.96
2022-11-27T17:46:55.472Z,59.24
2022-11-27T17:49:21.757Z,59.78
2022-11-27T17:51:48.018Z,59.27
2022-11-27T17:54:14.285Z,59.70
2022-11-27T17:56:40.593Z,59.60
2022-11-27T17:59:06.868Z,60.02
2022-11-27T18:01:33.172Z,59.58
2022-11-27T18:03:59.572Z,59.82
2022-11-27T18:06:25.823Z,59.87
2022-11-27T18:08:52.088Z,59.99
2022-11-27T18:11:18.423Z,60.06
2022-11-27T18:13:44.699Z,60.28
2022-11-27T18:16:11.033Z,59.94
2022-11-27T18:18:37.321Z,60.45
2022-11-27T18:21:03.588Z,60.68
2022-11-27T18:23:29.893Z,60.98
2022-11-27T18:25:56.167Z,60.62
2022-11-27T18:28:22.433Z,60.75
2022-11-27T18:30:48.713Z,60.66
2022-11-27T18:33:15.005Z,60.40
2022-11-27T18:35:41.295Z,60.29
2022-11-27T18:38:07.575Z,60.88
2022-11-27T18:40:33.987Z,60.77
2022-11-27T18:43:00.260Z,60.74
2022-11-27T18:45:33.308Z,61.15
2022-11-27T18:48:01.388Z,61.16
2022-11-27T18:50:29.875Z,61.29
2022-11-27T18:52:56.310Z,61.28
2022-11-27T18:55:22.573Z,60.85
2022-11-27T18:57:48.852Z,61.48
2022-11-27T19:00:15.108Z,61.22
2022-11-27T19:02:41.434Z,61.57
2022-11-27T19:05:07.690Z,61.65
2022-11-27T19:07:34.000Z,61.59
2022-11-27T19:10:00.321Z,61.40
2022-11-27T19:12:26.588Z,60.97
2022-11-27T19:14:52.882Z,61.18
2022-11-27T19:17:19.164Z,61.55
2022-11-27T19:20:00.782Z,61.59
2022-11-27T19:22:27.087Z,61.42
2022-11-27T19:24:53.339Z,61.35
2022-11-27T19:27:19.613Z,61.22
2022-11-27T19:29:45.897Z,60.95
2022-11-27T19:32:12.210Z,61.05
2022-11-27T19:34:38.719Z,61.48
2022-11-27T19:37:05.101Z,61.42
2022-11-27T19:39:31.357Z,61.45
2022-11-27T19:41:57.617Z,61.54
2022-11-27T19:44:23.893Z,61.84
2022-11-27T19:46:50.162Z,61.69
2022-11-27T19:49:16.437Z,61.14
2022-11-27T19:51:42.695Z,61.51
2022-11-27T19:54:10.535Z,61.70
2022-11-27T19:56:37.078Z,61.72
2022-11-27T19:59:03.335Z,62.13
2022-11-27T20:01:29.700Z,62.03
2022-11-27T20:03:56.007Z,62.36
2022-11-27T20:06:22.290Z,62.14
2022-11-27T20:08:48.572Z,61.88
2022-11-27T20:11:14.851Z,62.53
2022-11-27T20:13:41.191Z,61.93
2022-11-27T20:16:07.544Z,62.08
2022-11-27T20:18:33.851Z,62.27
2022-11-27T20:21:00.121Z,61.93
2022-11-27T20:23:26.383Z,61.71
2022-11-27T20:25:52.656Z,62.26
2022-11-27T20:28:18.909Z,62.07
2022-11-27T20:30:45.154Z,62.19
2022-11-27T20:33:11.406Z,62.43
2022-11-27T20:35:37.661Z,62.23
2022-11-27T20:38:03.969Z,62.63
2022-11-27T20:40:30.336Z,62.12
2022-11-27T20:42:56.602Z,61.91
2022-11-27T20:45:22.914Z,61.80
2022-11-27T20:47:49.199Z,61.64
2022-11-27T20:50:15.477Z,61.90
2022-11-27T20:52:41.751Z,62.27
2022-11-27T20:55:08.100Z,62.47
2022-11-27T20:57:34.381Z,62.67
2022-11-27T21:00:00.735Z,62.31
2022-11-27T21:02:27.253Z,62.05
2022-11-27T21:04:53.606Z,62.21
2022-11-27T21:07:19.955Z,62.74
2022-11-27T21:09:46.231Z,62.23
2022-11-27T21:12:12.498Z,62.41
2022-11-27T21:14:38.759Z,62.89
2022-11-27T21:17:05.492Z,62.91
2022-11-27T21:19:31.852Z,62.87
2022-11-27T21:21:58.128Z,62.57
2022-11-27T21:24:24.381Z,62.64
2022-11-27T21:26:50.748Z,62.90
2022-11-27T21:29:17.057Z,62.81
2022-11-27T21:31:46.717Z,63.14
2022-11-27T21:34:13.813Z,62.95
2022-11-27T21:36:40.100Z,62.95
2022-11-27T21:39:06.376Z,62.72
2022-11-27T21:41:32.628Z,63.13
2022-11-27T21:43:58.888Z,62.74
2022-11-27T21:46:25.196Z,62.64
2022-11-27T21:48:53.613Z,63.06
2022-11-27T21:51:19.884Z,63.18
2022-11-27T21:53:46.176Z,63.34
2022-11-27T21:56:12.492Z,62.81
2022-11-27T21:58:38.776Z,63.11
2022-11-27T22:01:05.068Z,63.00
2022-11-27T22:03:31.387Z,62.84
2022-11-27T22:05:57.649Z,63.28
2022-11-27T22:08:23.905Z,63.32
2022-11-27T22:10:50.200Z,63.44
2022-11-27T22:13:16.510Z,63.68
2022-11-27T22:15:42.777Z,63.77
2022-11-27T22:18:09.040Z,63.66
2022-11-27T22:20:35.320Z,63.18
2022-11-27T22:23:01.597Z,63.62
2022-11-27T22:25:27.849Z,63.67
2022-11-27T22:27:54.094Z,63.91
2022-11-27T22:30:20.382Z,63.39
2022-11-27T22:32:46.689Z,63.38
2022-11-27T22:35:12.931Z,63.10
2022-11-27T22:37:39.203Z,63.02
2022-11-27T22:40:05.467Z,63.58
2022-11-27T22:42:31.744Z,63.55
2022-11-27T22:44:58.082Z,63.26
2022-11-27T22:47:24.327Z,63.09
2022-11-27T22:49:50.620Z,63.40
2022-11-27T22:52:16.887Z,63.13
2022-11-27T22:54:43.284Z,63.10
2022-11-27T22:57:09.716Z,63.03
2022-11-27T22:59:35.965Z,63.67
2022-11-27T23:02:02.294Z,63.41
2022-11-27T23:04:28.614Z,64.04
2022-11-27T23:06:54.872Z,64.03
2022-11-27T23:09:21.125Z,63.63
2022-11-27T23:11:47.384Z,63.59
2022-11-27T23:14:13.649Z,63.88
2022-11-27T23:16:40.034Z,63.23
2022-11-27T23:19:06.416Z,63.71
2022-11-27T23:21:32.739Z,63.81
2022-11-27T23:23:59.041Z,63.31
2022-11-27T23:26:25.297Z,63.33
2022-11-27T23:28:51.555Z,63.89
2022-11-27T23:31:33.504Z,63.41
2022-11-27T23:33:59.828Z,63.67
2022-11-27T23:36:26.081Z,63.15
2022-11-27T23:38:52.364Z,62.58
2022-11-27T23:41:18.641Z,62.58
2022-11-27T23:43:44.902Z,62.24
2022-11-27T23:46:11.202Z,62.71
2022-11-27T23:48:37.541Z,62.31
2022-11-27T23:51:03.808Z,62.91
2022-11-27T23:53:30.066Z,62.79
2022-11-27T23:55:56.309Z,63.44
2022-11-27T23:58:22.572Z,63.06
